Terminal Aerodrome Forecast
Issued by NWS Cleveland, OH

Home | Current Version | Previous Version | Graphics & Text | Print | Product List | Glossary Off
Versions: 1 2 3 4 5 6 7 8 9 10 11 12 13 14 15 16 17 18

000
FTUS41 KCLE 290700 AAA
TAFCAK
TAF AMD
KCAK 290726Z 2907/3006 33005KT P6SM BKN025
     FM291700 01006KT P6SM BKN035
     FM292300 36005KT P6SM SCT035=

USA.gov is the U.S. government's official web portal to all federal, state and local government web resources and services.